This is the latest recevied weather packets stored in our database for station/object K0UND-1. If no packets are shown the sender has not sent any weather packets the latest 10 day(s).
| Time | Temp. | Humidity | Pressure | Rain* | Wind** | Luminosity | Snow |
|---|---|---|---|---|---|---|---|
| 1788134407 | 75° F | 74% | 754.6 mmHg | 0 in | - | - | - |
| 1788130807 | 75° F | 74% | 754.9 mmHg | 0 in | - | - | - |
| 1788127206 | 77° F | 69% | 755.4 mmHg | 0 in | - | - | - |
| 1788123606 | 77° F | 69% | 755.9 mmHg | 0 in | - | - | - |
| 1788120009 | 79° F | 65% | 756.4 mmHg | 0 in | - | - | - |
| 1788116405 | 75° F | 74% | 756.4 mmHg | 0 in | - | - | - |
| 1788112811 | 75° F | 74% | 756.7 mmHg | 0 in | - | - | - |
| 1788109207 | 75° F | 74% | 756.7 mmHg | 0 in | - | - | - |
| 1788105607 | 73° F | 73% | 757.2 mmHg | 0 in | - | - | - |
| 1788102013 | 70° F | 83% | 757.2 mmHg | 0 in | - | - | - |
| 1788098412 | 66° F | 94% | 757.7 mmHg | 0 in | - | - | - |
| 1788094811 | 66° F | 94% | 757.4 mmHg | 0.01 in | - | - | - |
| 1788091207 | 66° F | 94% | 757.4 mmHg | 0 in | - | - | - |
| 1788087611 | 68° F | 88% | 757.2 mmHg | 0 in | - | - | - |
| 1788084010 | 66° F | 94% | 757.2 mmHg | 0 in | - | - | - |
| 1788080411 | 66° F | 94% | 757.2 mmHg | 0 in | - | - | - |
| 1788076805 | 70° F | 83% | 757.2 mmHg | 0 in | - | - | - |
| 1788073209 | 68° F | 88% | 757.4 mmHg | 0 in | - | - | - |
| 1788069608 | 70° F | 83% | 757.2 mmHg | 0 in | - | - | - |
| 1788066019 | 72° F | 83% | 757.7 mmHg | 0 in | - | - | - |
| 1788062411 | 72° F | 83% | 757.7 mmHg | 0 in | - | - | - |
| 1788058804 | 72° F | 83% | 757.4 mmHg | 0 in | - | - | - |
| 1788055208 | 73° F | 83% | 756.9 mmHg | 0 in | - | - | - |
| 1788051611 | 75° F | 78% | 756.7 mmHg | 0 in | - | - | - |
| 1788048004 | 79° F | 65% | 756.4 mmHg | 0 in | - | - | - |
* Rain latest hour (hover to see other rain measurements)
** Current wind speed in m/s (hover to see current wind gust speed)